Angel Albino Corzo International Airport
MMTG : now visible

Airfield :











YOU CAN JOIN US ON...

 
LOGIN :

Register | Disclaimer

   EN    FR    IT 

 









Legend :    VFR   Marginal VFR   IFR   Intensive IFR   Very Intensive IFR
Visi :
Ceiling :
>= 8 km
>= 3000ft
5 to 8 km
1000 to 3000 ft
1500m to 5 km
500 to 1000 ft
800 to 1500m
200 to 500 ft
< 800m
< 200 ft
Symbols :   Thunderstorms  Fog  Heavy snow  Heavy precipitations  Wind > 20 kt






- Airport Elevation : 1499 ft


MMTG - Angel Albino Corzo International

CURRENT METAR :
  • 220140Z 17005KT 7SM SCT040 BKN080 BKN300 25/22 A2996 RMK 8/152 CB DSTN SW W NW

EXPIRED METARs :
  • 220045Z 16005KT 7SM SCT040TCU SCT080 BKN300 26/21 A2992 RMK 8/253 PCPN DSTN N NE
  • 212342Z 32017KT 7SM BKN040TCU BKN300 28/19 A2990 RMK SLP089 52008 955 8/203 SHRA NW CB MOV E

TAF TAF MMTG
Valid from the 21 at 18:00 until the 22 at 18:00 UTC


211653Z 2118/2218 14006KT 6SM HZ SCT015 BKN300
FM212100 14015KT 6SM HZ BKN020CB BKN080
TEMPO 2122/2202 5SM TSRA
FM220300 14006KT P6SM SCT020 BKN080
BECMG 2205/2206 00000KT
FM221000 14005KT 6SM HZ BKN015 BKN080
TEMPO 2211/2215 3SM BR HZ OVC010
MMFR FIR / North America



MET'MAP, your aeronautical weather chart ! - Copyright ORBIFLY December 2007 - Disclaimer

ORBIFLY MET'MAP TEAM :

Programming & Development : Alexandra Zaïnal
Concept & original design : Baudouin d'Aumeries
Assistance for programming : Marc-Olivier Méhu
Technical & hardware support : Manuel Goepfert

Contact : metmap@orbifly.com




SOURCES & CREDITS :

   NOAA       Earth
Advisory